Blue Oak Ranch Reserve, California Weather observations

Data are for 10 minute period ending at time listed.
 Day   Time   Solar   Ave.   Ave.  Ave.  Vector  Max.   Baro.   Total    
  of    of     Rad.   Air    Rel.  Wind   Wind   Wind  Press.  Precip.   
Year   Day            Temp.  Hum.  Speed  Dir.   Gust                    
2026   (PST)  Kw/m2    F      %     mph   deg.    mph    mb.     in.     
-------------------------------------------------------------------------
 123    1:50   0.00   47.5    95    2.9   279     4.5   944.7    0.00 
 123    2:00   0.00   47.4    95    3.1   279     4.5   944.7    0.00 
 123    2:10   0.00   47.3    95    2.9   278     4.8   944.6    0.00 
 123    2:20   0.00   47.3    95    3.2   282     4.4   944.6    0.00 
 123    2:30   0.00   47.3    95    3.2   278     4.9   944.7    0.00 
 123    2:40   0.00   47.3    95    2.9   294     5.2   944.7    0.00 
 123    2:50   0.00   47.2    95    3.0   284     4.9   944.7    0.00 
 123    3:00   0.00   47.2    95    2.7   279     4.1   944.7    0.00 
 123    3:10   0.00   47.2    95    2.3   280     3.6   944.7    0.00 
 123    3:20   0.00   47.2    95    2.1   276     4.1   944.7    0.00 
 123    3:30   0.00   47.2    95    3.1   276     5.0   944.7    0.00 
 123    3:40   0.00   47.1    95    4.2   279     5.3   944.6    0.00 
 123    3:50   0.00   47.0    95    2.7   271     4.7   944.6    0.00 
 123    4:00   0.00   46.9    95    1.5   307     4.8   944.6    0.00 
 123    4:10   0.00   46.9    95    0.9   315     2.3   944.6    0.00 
 123    4:20   0.00   46.9    95    0.3    13     1.5   944.6    0.00 
 123    4:30   0.00   46.9    95    0.1   277     1.0   944.6    0.00 
 123    4:40   0.00   46.9    95    0.1   131     0.8   944.5    0.00 
 123    4:50   0.00   47.0    95    0.1   280     1.1   944.5    0.00 
 123    5:00   0.00   47.1    95    0.5   144     1.1   944.7    0.00 
 123    5:10   0.00   47.1    95    1.0   173     1.7   944.8    0.00 
 123    5:20   0.00   47.2    95    0.9   207     2.3   944.9    0.00 
 123    5:30   0.00   47.2    95    0.2   220     2.0   945.1    0.00 
 123    5:40   0.01   47.2    95    2.6   249     5.4   945.2    0.00 
 123    5:50   0.01   47.2    95    1.6   254     3.1   945.3    0.00 
 123    6:00   0.02   47.2    95    2.3   258     4.1   945.3    0.00 
 123    6:10   0.03   47.2    95    1.9   272     3.3   945.4    0.00 
 123    6:20   0.03   47.3    95    1.2   203     3.2   945.6    0.00 
 123    6:30   0.03   47.3    95    1.9   243     5.5   945.8    0.00 
 123    6:40   0.03   47.3    95    2.9   270     5.4   945.9    0.00 
 123    6:50   0.04   47.4    95    2.1   269     4.2   946.0    0.00 
 123    7:00   0.07   47.6    95    1.4   267     2.5   946.1    0.00 
 123    7:10   0.06   47.7    95    1.4   252     3.2   946.2    0.00 
 123    7:20   0.06   47.8    95    3.3   260     5.6   946.2    0.00 
 123    7:30   0.10   47.8    95    3.1   269     6.1   946.3    0.00 
 123    7:40   0.13   48.0    94    3.4   257     6.4   946.3    0.00 
 123    7:50   0.17   48.4    92    3.6   252     6.7   946.4    0.00 
 123    8:00   0.19   49.2    89    4.3   264     9.2   946.4    0.00 
 123    8:10   0.20   49.9    87    3.8   266     7.0   946.6    0.00 
 123    8:20   0.22   50.4    85    2.8   251     5.9   946.7    0.00 
 123    8:30   0.24   50.6    82    3.1   251     6.6   946.7    0.00 
 123    8:40   0.31   51.6    79    3.1   219     7.0   946.6    0.00 
 123    8:50   0.41   52.1    76    4.7   228     8.0   946.5    0.00 
 123    9:00   0.46   53.3    74    5.7   252    10.6   946.6    0.00 
 123    9:10   0.66   55.1    70    4.7   263     9.2   946.7    0.00 
 123    9:20   0.46   55.1    68    4.3   243     8.8   946.7    0.00 
 123    9:30   0.40   54.8    69    3.6   259     8.5   946.8    0.00 
 123    9:40   0.38   55.5    67    4.6   262     8.9   946.8    0.00 
 123    9:50   0.33   54.1    68    4.2   219     7.9   946.8    0.00 
 123   10:00   0.27   53.7    69    3.8   237     8.6   946.9    0.00 
 123   10:10   0.23   53.2    73    4.7   249     9.9   946.9    0.00 
 123   10:20   0.21   52.9    76    4.6   254     9.9   946.9    0.00 
 123   10:30   0.17   53.0    76    3.5   255     9.1   947.0    0.00 
 123   10:40   0.18   52.6    75    5.3   262    11.3   946.9    0.00 
 123   10:50   0.15   52.1    79    5.4   252    10.3   946.9    0.00 
 123   11:00   0.15   51.4    80    4.4   250     6.8   947.0    0.00 
 123   11:10   0.19   51.5    80    3.7   253     6.7   947.0    0.00 
 123   11:20   0.18   52.0    79    3.7   265     7.2   947.0    0.00 
 123   11:30   0.20   52.6    78    5.0   262     7.6   947.0    0.00 
 123   11:40   0.25   52.9    76    4.1   283     6.4   947.0    0.00 
 123   11:50   0.32   53.4    74    2.9   244     7.5   947.0    0.00 
 123   12:00   0.40   54.3    71    2.6   223     5.4   946.9    0.00 
 123   12:10   0.55   55.0    70    3.3   184     7.5   946.9    0.00 
 123   12:20   0.30   54.9    70    5.9   240    10.2   946.8    0.00 
 123   12:30   0.28   54.5    70    4.4   209     7.8   946.8    0.00 
 123   12:40   0.27   53.9    71    3.7   232     7.1   946.8    0.00 
 123   12:50   0.29   54.1    71    4.5   230     8.7   946.7    0.00 
 123   13:00   0.38   54.2    70    4.5   228     9.9   946.7    0.00 
 123   13:10   1.03   56.7    67    3.7   158    10.1   946.7    0.00 
 123   13:20   1.29   58.9    61    5.1   228    10.7   946.7    0.00 
 123   13:30   1.19   59.5    59    6.2   204    12.6   946.7    0.00 
 123   13:40   0.86   58.9    60    5.2   186    10.0   946.6    0.00 
 123   13:50   0.37   57.4    62    4.2   165     8.8   946.6    0.00 
 123   14:00   0.30   56.4    64    4.5   206     9.4   946.5    0.00 
 123   14:10   0.24   56.4    64    4.7   236     8.0   946.5    0.00 
 123   14:20   0.26   56.3    64    5.9   264     9.8   946.5    0.00 
 123   14:30   0.33   56.8    63    5.0   257     9.6   946.5    0.00 
 123   14:40   0.47   57.3    63    5.7   270    10.2   946.5    0.00 
 123   14:50   0.55   58.2    60    5.4   277    11.3   946.4    0.00 
 123   15:00   0.27   57.3    63    4.8   277    11.0   946.4    0.00 
 123   15:10   0.30   56.8    64    4.6   249     8.0   946.3    0.00 
 123   15:20   0.29   57.5    63    4.8   272     8.5   946.3    0.00 
 123   15:30   0.28   57.5    63    5.0   269     9.9   946.4    0.00 
 123   15:40   0.27   57.2    62    4.9   284     9.5   946.2    0.00 
 123   15:50   0.24   56.4    62    5.7   253    10.4   946.3    0.00 
 123   16:00   0.21   55.9    63    4.4   274     9.0   946.2    0.00 
 123   16:10   0.30   56.2    62    4.0   268     7.3   946.2    0.00 
 123   16:20   0.32   57.0    60    4.0   249     7.5   946.2    0.00 
 123   16:30   0.36   57.0    61    5.6   265    10.3   946.3    0.00 
 123   16:40   0.25   56.6    64    6.5   285    11.7   946.4    0.00 
 123   16:50   0.41   57.4    61    5.6   278    10.2   946.5    0.00 
 123   17:00   0.46   58.5    58    5.9   264    12.9   946.5    0.00 
 123   17:10   0.37   58.6    57    5.9   276     9.6   946.5    0.00 
 123   17:20   0.29   57.4    57    6.0   257     9.5   946.4    0.00 
 123   17:30   0.30   57.7    56    5.4   269     9.0   946.4    0.00 
 123   17:40   0.26   57.3    56    5.0   253     9.9   946.4    0.00 
 123   17:50   0.24   57.5    55    5.9   279    10.2   946.3    0.00 
 123   18:00   0.18   57.2    55    5.0   273     8.0   946.3    0.00 
 123   18:10   0.12   55.9    57    5.2   264     8.0   946.3    0.00 
 123   18:20   0.07   55.2    58    4.6   264     9.8   946.4    0.00 
 123   18:30   0.04   53.9    60    5.0   257     9.3   946.5    0.00 
 123   18:40   0.02   53.0    63    4.4   266     8.2   946.6    0.00 
 123   18:50   0.01   52.4    66    4.8   274     8.4   946.6    0.00 
 123   19:00   0.01   51.8    67    4.2   267     7.8   946.7    0.00 
 123   19:10   0.00   51.2    71    4.5   286     8.2   946.8    0.00 
 123   19:20   0.00   50.7    76    3.6   280     7.1   946.8    0.00 
 123   19:30   0.00   49.9    79    2.1   288     3.6   946.9    0.00 
 123   19:40   0.00   49.2    81    1.2   283     3.5   947.0    0.00 
 123   19:50   0.00   48.8    82    2.6   277     5.3   947.1    0.00 
 123   20:00   0.00   48.7    84    1.7   286     5.0   947.4    0.00 
 123   20:10   0.00   48.8    84    2.0   255     3.6   947.4    0.00 
 123   20:20   0.00   48.9    82    3.0   264     5.6   947.5    0.00 
 123   20:30   0.00   48.9    79    2.4   254     4.9   947.6    0.00 
 123   20:40   0.00   49.0    79    1.1   257     2.8   947.6    0.00 
 123   20:50   0.00   49.0    80    1.5   184     2.7   947.7    0.00 
 123   21:00   0.00   48.5    81    1.6   169     2.6   947.7    0.00 
 123   21:10   0.00   48.1    82    1.0   168     2.5   947.9    0.00 
 123   21:20   0.00   47.4    84    1.2    10     2.5   947.9    0.00 
 123   21:30   0.00   46.6    85    0.7     8     2.0   948.0    0.00 
 123   21:40   0.00   45.7    86    0.1    12     1.2   948.0    0.00 
 123   21:50   0.00   44.9    87    0.0     0     0.0   948.0    0.00 
 123   22:00   0.00   44.1    88    0.0   309     0.4   948.1    0.00 
 123   22:10   0.00   43.5    90    0.0    78     0.8   948.2    0.00 
 123   22:20   0.00   43.2    90    0.1   142     0.9   948.1    0.00 
 123   22:30   0.00   42.9    91    0.1   101     1.0   948.1    0.00 
 123   22:40   0.00   42.9    92    0.4   277     2.0   948.2    0.00 
 123   22:50   0.00   43.3    92    0.0   198     0.8   948.3    0.00 
 123   23:00   0.00   43.7    93    0.0     0     0.0   948.3    0.00 
 123   23:10   0.00   44.1    93    0.0     0     0.0   948.2    0.00 
 123   23:20   0.00   44.3    93    0.0     0     0.0   948.3    0.00 
 123   23:30   0.00   44.5    93    0.2    75     1.0   948.3    0.00 
 123   23:40   0.00   44.1    92    0.1    57     0.6   948.2    0.00 
 123   23:50   0.00   43.4    92    0.3    16     1.3   948.3    0.00 
 124    0:00   0.00   42.7    92    1.3    34     2.9   948.3    0.00 
 124    0:10   0.00   42.0    92    0.7     8     2.3   948.3    0.00 
 124    0:20   0.00   41.6    92    0.4    32     1.2   948.2    0.00 
 124    0:30   0.00   41.1    93    0.5   118     1.5   948.2    0.00 
 124    0:40   0.00   40.8    93    0.5    70     1.5   948.1    0.00 
 124    0:50   0.00   40.3    93    0.6   284     2.0   948.0    0.00 
 124    1:00   0.00   40.1    93    0.4   287     1.5   948.0    0.00 
 124    1:10   0.00   40.1    94    1.1     5     2.0   947.9    0.00 
 124    1:20   0.00   40.0    94    0.8    56     1.8   947.9    0.00 
 124    1:30   0.00   39.7    94    0.9   291     2.0   947.8    0.00 
 124    1:40   0.00   39.7    94    0.0   286     0.4   947.8    0.00 

Return to Blue Oak Ranch Reserve graphs page.


Western Regional Climate Center,wrcc@dri.edu